Time;durP1;ratioP1;P1;durP2;ratioP2;P2;SDS_P1;SDS_P2;PMS_P1;PMS_P2;Temp;Humidity;BMP_temperature;BMP_pressure;BME280_temperature;BME280_humidity;BME280_pressure;Samples;Min_cycle;Max_cycle;Signal;HPM_P1;HPM_P2
2021/04/04 00:00:36;;;;;;;8.05;2.95;;;;;;;2.90;70.40;97511.13;1650040;86;21180;-64
2021/04/04 00:03:07;;;;;;;7.92;3.90;;;;;;;2.89;70.38;97513.33;1638593;87;21152;-63
2021/04/04 00:05:35;;;;;;;6.70;2.95;;;;;;;2.95;71.59;97512.92;1638695;87;21265;-63
2021/04/04 00:10:45;;;;;;;9.08;3.00;;;;;;;3.06;70.41;97520.68;1648488;86;21731;-62
2021/04/04 00:13:13;;;;;;;7.85;3.22;;;;;;;3.14;69.69;97518.86;1649172;86;21593;-62
2021/04/04 00:15:41;;;;;;;4.92;2.70;;;;;;;3.20;70.08;97515.84;1648791;86;21289;-62
2021/04/04 00:18:09;;;;;;;4.37;3.08;;;;;;;3.20;69.89;97514.56;1648620;86;21672;-62
2021/04/04 00:20:38;;;;;;;8.35;3.62;;;;;;;3.24;70.45;97517.27;1648656;86;21632;-62
2021/04/04 00:23:06;;;;;;;5.03;3.47;;;;;;;3.24;69.36;97515.98;1648518;86;21418;-63
2021/04/04 00:25:34;;;;;;;6.28;3.55;;;;;;;3.27;68.62;97521.72;1648445;86;21168;-62
2021/04/04 00:28:22;;;;;;;8.35;4.17;;;;;;;3.24;71.53;97514.70;1648561;86;21220;-63
2021/04/04 00:30:50;;;;;;;7.45;3.70;;;;;;;3.24;70.86;97521.95;1645087;86;21625;-62
2021/04/04 00:33:18;;;;;;;5.37;3.55;;;;;;;3.24;71.28;97515.98;1644976;86;21258;-62
2021/04/04 00:35:47;;;;;;;5.75;3.80;;;;;;;3.25;69.65;97515.89;1644988;86;21206;-62
2021/04/04 00:38:16;;;;;;;5.72;3.27;;;;;;;3.24;71.58;97519.84;1645436;86;21356;-62
2021/04/04 00:40:44;;;;;;;8.18;4.95;;;;;;;3.23;70.71;97522.86;1645169;86;21174;-62
2021/04/04 00:43:12;;;;;;;7.72;3.10;;;;;;;3.23;71.75;97520.79;1645286;86;21182;-61
2021/04/04 00:45:40;;;;;;;7.97;3.98;;;;;;;3.23;70.90;97518.22;1645118;86;21614;-63
2021/04/04 00:48:11;;;;;;;5.42;3.10;;;;;;;3.20;71.36;97521.80;1645247;86;21194;-63
2021/04/04 00:50:40;;;;;;;4.90;3.55;;;;;;;3.20;71.28;97519.23;1645345;86;21642;-62
2021/04/04 00:53:10;;;;;;;12.20;3.62;;;;;;;3.18;71.01;97519.83;1645064;86;21178;-62
2021/04/04 00:55:38;;;;;;;9.50;4.28;;;;;;;3.15;71.76;97527.72;1645316;86;21185;-62
2021/04/04 00:58:06;;;;;;;5.47;3.22;;;;;;;3.00;72.99;97523.66;1645018;86;21143;-61
2021/04/04 01:00:35;;;;;;;6.45;3.70;;;;;;;2.93;72.68;97518.59;1645298;86;21186;-62
2021/04/04 01:03:06;;;;;;;6.15;3.92;;;;;;;2.90;71.97;97513.69;1645373;86;21237;-62
2021/04/04 01:05:38;;;;;;;4.97;3.92;;;;;;;2.88;71.79;97519.86;1645049;86;21623;-61
2021/04/04 01:08:09;;;;;;;6.03;3.92;;;;;;;2.88;71.49;97512.95;1645034;86;21177;-61
2021/04/04 01:10:41;;;;;;;6.17;4.15;;;;;;;2.88;71.26;97516.34;1645125;86;21197;-62
2021/04/04 01:13:35;;;;;;;7.83;4.60;;;;;;;2.87;70.97;97510.06;1645154;86;21186;-62
2021/04/04 01:16:30;;;;;;;6.85;4.28;;;;;;;2.83;72.09;97509.45;1645156;86;21146;-62
2021/04/04 01:19:27;;;;;;;6.35;3.87;;;;;;;2.77;72.13;97512.42;1644952;86;21179;-61
2021/04/04 01:22:07;;;;;;;3.95;3.27;;;;;;;2.76;72.19;97513.34;1645331;86;21785;-61
2021/04/04 01:24:59;;;;;;;5.53;3.80;;;;;;;2.75;72.17;97515.57;1644564;86;21174;-61
2021/04/04 01:27:48;;;;;;;5.90;4.20;;;;;;;2.77;72.08;97516.27;1642528;87;21179;-62
2021/04/04 01:30:17;;;;;;;9.15;4.37;;;;;;;2.78;71.84;97519.66;1631841;86;21279;-63
2021/04/04 01:32:49;;;;;;;7.60;4.40;;;;;;;2.80;71.58;97519.91;1647130;86;21344;-63
2021/04/04 01:35:20;;;;;;;3.67;2.98;;;;;;;2.83;71.75;97515.05;1630391;88;21600;-63
2021/04/04 01:37:53;;;;;;;4.00;3.10;;;;;;;2.85;71.44;97522.16;1647344;86;21194;-63
2021/04/04 01:40:25;;;;;;;5.10;4.12;;;;;;;2.88;71.57;97521.94;1630349;88;21208;-62
2021/04/04 01:42:56;;;;;;;5.55;4.03;;;;;;;2.90;71.38;97525.69;1647344;87;21234;-65
2021/04/04 01:45:29;;;;;;;6.75;3.47;;;;;;;2.88;71.14;97527.55;1630576;88;21247;-63
2021/04/04 01:47:55;;;;;;;5.58;4.12;;;;;;;2.88;71.08;97523.70;1647027;86;21205;-62
2021/04/04 01:50:25;;;;;;;15.08;4.37;;;;;;;2.85;71.08;97521.70;1630502;88;21196;-63
2021/04/04 01:52:53;;;;;;;4.08;3.62;;;;;;;2.84;71.10;97525.17;1647170;87;21702;-63
2021/04/04 01:55:23;;;;;;;6.92;3.67;;;;;;;2.83;71.17;97527.41;1647077;87;21186;-61
2021/04/04 01:57:52;;;;;;;6.70;4.15;;;;;;;2.82;71.32;97529.61;1619572;87;21194;-63
2021/04/04 02:00:27;;;;;;;10.43;5.33;;;;;;;2.79;71.83;97531.11;1630375;88;21672;-63
2021/04/04 02:02:56;;;;;;;5.25;4.12;;;;;;;2.67;73.23;97534.50;1647253;86;21221;-65
2021/04/04 02:05:25;;;;;;;7.37;4.72;;;;;;;2.57;72.27;97541.16;1630428;88;21168;-63
2021/04/04 02:07:54;;;;;;;7.25;3.90;;;;;;;2.50;72.30;97534.81;1647015;87;21611;-63
2021/04/04 02:10:27;;;;;;;7.08;4.28;;;;;;;2.46;72.19;97538.50;1630363;88;21188;-63
2021/04/04 02:12:59;;;;;;;8.00;4.25;;;;;;;2.42;72.03;97537.06;1647396;87;21181;-61
2021/04/04 02:15:30;;;;;;;6.05;4.15;;;;;;;2.34;71.96;97538.03;1630302;88;21608;-63
2021/04/04 02:17:59;;;;;;;5.72;4.35;;;;;;;2.27;72.38;97538.91;1647049;87;21315;-64
2021/04/04 02:20:31;;;;;;;8.83;3.77;;;;;;;2.19;72.32;97541.62;1630518;88;21256;-61
2021/04/04 02:23:02;;;;;;;3.77;2.92;;;;;;;2.13;72.37;97544.14;1647100;86;21372;-61
2021/04/04 02:25:30;;;;;;;7.35;3.98;;;;;;;2.06;72.35;97550.59;1630481;87;21192;-60
2021/04/04 02:27:59;;;;;;;5.62;3.27;;;;;;;1.98;75.78;97553.28;1647122;87;21182;-61
2021/04/04 02:30:28;;;;;;;5.08;3.20;;;;;;;1.86;76.68;97560.84;1633902;87;21258;-62
2021/04/04 02:33:10;;;;;;;5.80;4.08;;;;;;;1.81;74.88;97565.89;1645212;87;21166;-64
2021/04/04 02:35:42;;;;;;;5.53;4.05;;;;;;;1.77;74.71;97563.98;1635522;88;21361;-62
2021/04/04 02:38:18;;;;;;;4.75;3.17;;;;;;;1.73;76.46;97562.99;1645580;86;21191;-63
2021/04/04 02:40:47;;;;;;;4.13;3.10;;;;;;;1.73;77.11;97565.55;1636129;88;21196;-67
2021/04/04 02:43:25;;;;;;;6.50;2.92;;;;;;;1.72;76.95;97565.18;1645423;86;21201;-65
2021/04/04 02:45:55;;;;;;;4.05;2.85;;;;;;;1.71;76.96;97567.41;1635805;88;21160;-65
2021/04/04 02:48:31;;;;;;;7.25;3.65;;;;;;;1.71;76.05;97563.08;1645384;87;21182;-65
2021/04/04 02:51:04;;;;;;;3.90;3.08;;;;;;;1.70;76.02;97574.26;1635614;88;21179;-63
2021/04/04 02:53:43;;;;;;;6.53;4.10;;;;;;;1.70;75.54;97561.91;1645136;87;21206;-70
2021/04/04 02:56:17;;;;;;;7.37;4.00;;;;;;;1.70;75.16;97563.19;1634931;87;21163;-62
2021/04/04 02:59:10;;;;;;;4.83;3.10;;;;;;;1.69;75.14;97562.83;1645108;87;21180;-63
2021/04/04 03:01:41;;;;;;;5.00;3.50;;;;;;;1.67;74.56;97567.23;1604075;89;21155;-64
2021/04/04 03:04:09;;;;;;;6.33;3.08;;;;;;;1.63;75.09;97569.17;1612802;89;21222;-64
2021/04/04 03:06:40;;;;;;;4.25;2.95;;;;;;;1.62;74.47;97567.98;1603965;88;21595;-64
2021/04/04 03:09:11;;;;;;;9.75;3.83;;;;;;;1.60;75.00;97562.94;1612647;88;21284;-62
2021/04/04 03:11:40;;;;;;;6.50;4.60;;;;;;;1.55;76.48;97562.89;1604221;89;21223;-62
2021/04/04 03:14:11;;;;;;;5.90;4.00;;;;;;;1.47;77.03;97556.16;1612962;89;21675;-65
2021/04/04 03:16:40;;;;;;;3.50;2.95;;;;;;;1.39;78.63;97563.03;1604263;89;21191;-65
2021/04/04 03:19:12;;;;;;;2.92;2.25;;;;;;;1.37;77.44;97563.11;1612851;89;21190;-64
2021/04/04 03:21:42;;;;;;;6.20;3.05;;;;;;;1.36;76.39;97570.42;1603909;89;21235;-64
2021/04/04 03:24:15;;;;;;;5.47;3.40;;;;;;;1.37;76.06;97566.95;1612689;89;21223;-65
2021/04/04 03:26:44;;;;;;;4.50;2.80;;;;;;;1.37;76.04;97566.12;1612634;88;21178;-64
2021/04/04 03:29:12;;;;;;;4.72;3.58;;;;;;;1.39;75.29;97569.42;1604120;89;21182;-64
2021/04/04 03:31:41;;;;;;;5.17;3.42;;;;;;;1.41;75.16;97562.46;1613181;89;21254;-65
2021/04/04 03:34:09;;;;;;;7.83;4.70;;;;;;;1.43;75.44;97564.03;1604266;89;21182;-63
2021/04/04 03:36:38;;;;;;;6.35;4.30;;;;;;;1.44;75.01;97565.64;1613163;89;21211;-64
2021/04/04 03:39:10;;;;;;;8.00;5.83;;;;;;;1.47;74.84;97571.05;1604363;89;21163;-63
2021/04/04 03:41:39;;;;;;;7.22;5.20;;;;;;;1.49;74.74;97570.48;1613086;89;21194;-60
2021/04/04 03:44:10;;;;;;;5.35;4.20;;;;;;;1.49;75.07;97568.38;1604419;89;21240;-65
2021/04/04 03:46:39;;;;;;;7.58;4.85;;;;;;;1.50;74.37;97572.13;1612892;88;22255;-63
2021/04/04 03:49:09;;;;;;;5.28;3.30;;;;;;;1.52;74.54;97573.33;1603996;88;21199;-63
2021/04/04 03:51:37;;;;;;;8.03;3.70;;;;;;;1.52;74.43;97579.72;1612630;89;21175;-63
2021/04/04 03:54:15;;;;;;;5.25;3.83;;;;;;;1.53;74.29;97577.50;1604350;89;21178;-63
2021/04/04 03:56:49;;;;;;;3.92;3.42;;;;;;;1.53;74.20;97585.18;1612840;89;21170;-63
2021/04/04 03:59:20;;;;;;;4.67;3.90;;;;;;;1.53;75.29;97587.73;1604033;89;21204;-65
2021/04/04 04:01:50;;;;;;;5.17;2.95;;;;;;;1.50;74.82;97590.05;1612856;89;21702;-65
2021/04/04 04:04:20;;;;;;;6.33;4.08;;;;;;;1.52;74.60;97596.36;1604127;89;21241;-64
2021/04/04 04:06:49;;;;;;;6.90;3.77;;;;;;;1.52;75.08;97591.23;1612829;88;21178;-63
2021/04/04 04:09:19;;;;;;;4.42;3.77;;;;;;;1.51;76.16;97593.42;1603943;89;21301;-62
2021/04/04 04:11:49;;;;;;;5.37;3.80;;;;;;;1.52;75.07;97592.03;1612864;88;21614;-61
2021/04/04 04:14:21;;;;;;;5.53;3.40;;;;;;;1.56;74.76;97597.78;1604391;89;21183;-63
2021/04/04 04:16:51;;;;;;;5.60;3.87;;;;;;;1.58;74.42;97600.63;1613146;89;21191;-61
2021/04/04 04:19:20;;;;;;;5.97;4.37;;;;;;;1.60;74.58;97598.77;1604076;89;21664;-61
2021/04/04 04:21:48;;;;;;;12.30;4.25;;;;;;;1.64;74.35;97597.66;1613038;89;21611;-61
2021/04/04 04:24:18;;;;;;;6.20;3.92;;;;;;;1.66;74.62;97596.30;1604058;89;21175;-63
2021/04/04 04:26:48;;;;;;;6.65;3.67;;;;;;;1.67;74.79;97601.34;1612863;89;21694;-63
2021/04/04 04:29:18;;;;;;;5.42;3.77;;;;;;;1.68;74.99;97606.80;1604254;89;21616;-63
2021/04/04 04:31:52;;;;;;;7.85;4.65;;;;;;;1.70;74.97;97604.15;1612947;89;21222;-63
2021/04/04 04:34:21;;;;;;;6.03;4.10;;;;;;;1.71;74.90;97605.80;1603812;89;21179;-63
2021/04/04 04:36:52;;;;;;;7.60;4.00;;;;;;;1.74;74.65;97614.10;1612771;89;21210;-63
2021/04/04 04:39:22;;;;;;;7.62;4.12;;;;;;;1.79;74.16;97613.81;1604084;88;21603;-64
2021/04/04 04:41:52;;;;;;;5.35;3.87;;;;;;;1.81;74.77;97620.93;1612717;88;21211;-63
2021/04/04 04:44:27;;;;;;;6.35;3.65;;;;;;;1.85;74.27;97619.36;1604292;89;21186;-62
2021/04/04 04:46:56;;;;;;;5.42;3.17;;;;;;;1.90;73.38;97619.91;1613101;88;21587;-63
2021/04/04 04:49:25;;;;;;;3.40;2.75;;;;;;;1.98;73.41;97625.81;1603973;89;21259;-63
2021/04/04 04:51:53;;;;;;;7.22;2.67;;;;;;;2.06;73.08;97629.16;1612878;87;21605;-63
2021/04/04 04:54:21;;;;;;;4.87;3.22;;;;;;;2.12;72.30;97636.44;1603936;89;21230;-65
2021/04/04 04:56:49;;;;;;;4.37;2.87;;;;;;;2.17;71.20;97636.52;1602166;89;21758;-63
2021/04/04 04:59:18;;;;;;;4.72;2.83;;;;;;;2.23;72.37;97643.80;1602151;89;21326;-65
2021/04/04 05:01:52;;;;;;;5.17;3.52;;;;;;;2.29;72.10;97643.88;1629117;86;21186;-63
2021/04/04 05:04:17;;;;;;;4.92;3.15;;;;;;;2.33;72.76;97644.83;1617315;88;21194;-63
2021/04/04 05:06:48;;;;;;;4.95;3.62;;;;;;;2.39;71.93;97650.03;1604033;88;21167;-63
2021/04/04 05:09:19;;;;;;;5.65;3.33;;;;;;;2.45;72.40;97653.49;1612893;89;21283;-65
2021/04/04 05:11:48;;;;;;;6.15;3.47;;;;;;;2.54;71.61;97648.20;1604059;89;21204;-64
2021/04/04 05:14:17;;;;;;;6.05;3.72;;;;;;;2.60;71.50;97647.81;1602142;89;21203;-65
2021/04/04 05:16:47;;;;;;;6.83;3.52;;;;;;;2.69;71.01;97651.03;1617734;88;21619;-64
2021/04/04 05:19:15;;;;;;;6.60;3.50;;;;;;;2.78;71.17;97652.99;1604161;88;21191;-64
2021/04/04 05:21:43;;;;;;;5.05;3.45;;;;;;;2.84;70.96;97655.96;1612782;88;21691;-64
2021/04/04 05:24:15;;;;;;;6.53;3.77;;;;;;;2.93;71.12;97653.70;1604149;89;21603;-64
2021/04/04 05:26:47;;;;;;;5.03;3.02;;;;;;;3.04;70.96;97662.32;1612984;89;21186;-65
2021/04/04 05:29:18;;;;;;;6.15;3.42;;;;;;;3.15;69.92;97657.77;1604024;89;21204;-65
2021/04/04 05:31:55;;;;;;;4.53;3.15;;;;;;;3.24;70.09;97661.80;1612944;89;21226;-65
2021/04/04 05:34:27;;;;;;;5.55;3.02;;;;;;;3.33;70.06;97656.05;1604213;89;21179;-65
2021/04/04 05:37:00;;;;;;;5.55;2.90;;;;;;;3.43;69.21;97660.06;1612676;89;21174;-65
2021/04/04 05:39:31;;;;;;;7.40;3.87;;;;;;;3.51;70.05;97660.36;1604098;88;21194;-65
2021/04/04 05:42:01;;;;;;;6.78;4.25;;;;;;;3.58;69.95;97667.19;1612978;89;21607;-65
2021/04/04 05:44:43;;;;;;;9.48;4.45;;;;;;;3.67;70.11;97667.81;1603901;89;21263;-65
2021/04/04 05:47:24;;;;;;;7.67;4.72;;;;;;;3.78;70.25;97666.14;1612752;88;21242;-63
2021/04/04 05:50:08;;;;;;;8.78;4.75;;;;;;;3.85;71.21;97665.27;1604224;89;21174;-63
2021/04/04 05:52:57;;;;;;;6.60;4.30;;;;;;;3.83;71.18;97668.39;1578260;89;21153;-63
2021/04/04 05:55:39;;;;;;;8.70;4.42;;;;;;;3.89;70.87;97664.09;1617933;87;21280;-63
2021/04/04 05:58:11;;;;;;;8.88;4.95;;;;;;;4.01;71.29;97668.36;1604140;88;21648;-62
2021/04/04 06:00:44;;;;;;;9.48;4.47;;;;;;;4.10;70.48;97666.89;1612911;88;21234;-65
2021/04/04 06:03:46;;;;;;;6.03;4.12;;;;;;;4.32;69.95;97664.89;1622555;88;21178;-65
2021/04/04 06:06:59;;;;;;;9.03;5.25;;;;;;;4.52;69.69;97665.52;1622694;88;21269;-64
2021/04/04 06:10:05;;;;;;;6.03;3.70;;;;;;;4.60;68.41;97667.07;1594898;88;21167;-64
2021/04/04 06:13:13;;;;;;;7.28;3.33;;;;;;;4.41;68.68;97668.89;1602983;89;21655;-64
2021/04/04 06:16:25;;;;;;;6.33;3.60;;;;;;;4.62;68.38;97676.80;1614603;89;21610;-63
2021/04/04 06:22:30;;;;;;;4.70;3.85;;;;;;;5.03;67.39;97668.56;1660169;85;21175;-64
2021/04/04 06:25:11;;;;;;;6.03;3.62;;;;;;;5.36;67.14;97666.48;1669277;84;21218;-63
2021/04/04 06:27:46;;;;;;;6.25;4.20;;;;;;;5.37;65.81;97664.27;1654335;85;21187;-62
2021/04/04 06:30:49;;;;;;;12.35;4.50;;;;;;;5.30;65.86;97674.19;1653763;85;21167;-65
2021/04/04 06:33:26;;;;;;;7.55;5.03;;;;;;;5.31;66.07;97669.41;1654338;85;21364;-64
2021/04/04 06:36:05;;;;;;;9.30;3.98;;;;;;;5.43;65.88;97663.78;1661914;85;21563;-64
2021/04/04 06:39:02;;;;;;;5.92;4.22;;;;;;;5.45;65.95;97667.04;1661944;85;21214;-64
2021/04/04 06:41:52;;;;;;;;;;;;;;;5.51;65.90;97670.45;1664205;85;21167;-63
2021/04/04 06:44:57;;;;;;;5.97;3.52;;;;;;;5.61;65.72;97669.61;1661950;85;20539;-65
2021/04/04 06:48:19;;;;;;;7.25;4.62;;;;;;;5.68;65.72;97672.05;1661725;85;21171;-64
2021/04/04 06:51:16;;;;;;;6.00;3.58;;;;;;;5.62;65.28;97674.30;1667570;86;21485;-64
2021/04/04 06:54:20;;;;;;;8.08;4.05;;;;;;;5.73;65.08;97680.72;1675427;85;21199;-63
2021/04/04 06:57:30;;;;;;;7.45;4.22;;;;;;;5.83;64.88;97679.55;1675264;86;21179;-64
2021/04/04 07:02:59;;;;;;;11.53;4.55;;;;;;;6.10;64.52;97669.67;1654820;86;21240;-64
2021/04/04 07:05:34;;;;;;;7.62;3.98;;;;;;;6.16;64.03;97669.17;1654790;85;21238;-63
2021/04/04 07:08:29;;;;;;;7.58;4.22;;;;;;;6.15;63.47;97673.97;1654041;86;21198;-63
2021/04/04 07:11:46;;;;;;;8.80;4.35;;;;;;;6.15;63.53;97672.68;1654629;86;21630;-63
2021/04/04 07:14:44;;;;;;;14.60;4.03;;;;;;;6.19;63.28;97676.66;1614213;87;21188;-61
2021/04/04 07:21:37;;;;;;;5.62;3.85;;;;;;;6.55;62.70;97683.20;1823879;77;22942;-63
2021/04/04 07:24:48;;;;;;;5.75;3.17;;;;;;;6.62;62.35;97680.46;1760361;81;21116;-64
2021/04/04 07:27:48;;;;;;;8.65;2.98;;;;;;;6.81;61.84;97678.02;1723876;83;21172;-64
2021/04/04 07:30:51;;;;;;;4.67;3.17;;;;;;;7.04;60.88;97675.64;1697339;83;21195;-65
2021/04/04 07:33:49;;;;;;;4.22;2.52;;;;;;;7.19;60.47;97682.60;1674866;85;21548;-64
2021/04/04 07:36:42;;;;;;;4.83;2.50;;;;;;;7.18;58.45;97681.42;1657576;86;21178;-64
2021/04/04 07:39:32;;;;;;;5.03;3.20;;;;;;;7.45;58.00;97677.34;1657367;86;21186;-63
2021/04/04 07:42:30;;;;;;;4.12;2.50;;;;;;;7.72;58.99;97673.34;1657311;85;21283;-65
2021/04/04 07:45:28;;;;;;;6.67;2.72;;;;;;;7.99;59.57;97680.83;1657751;86;21607;-63
2021/04/04 07:48:23;;;;;;;3.92;2.92;;;;;;;8.24;58.03;97678.70;1657774;86;21273;-64
2021/04/04 07:51:27;;;;;;;4.17;2.70;;;;;;;8.39;56.71;97683.84;1681181;84;21238;-65
2021/04/04 07:54:04;;;;;;;4.97;2.47;;;;;;;8.41;53.45;97683.21;1592571;88;21298;-65
2021/04/04 07:56:58;;;;;;;4.12;2.60;;;;;;;8.67;54.50;97683.02;1635298;86;21237;-64
2021/04/04 07:59:48;;;;;;;4.25;3.05;;;;;;;8.68;51.71;97683.34;1634908;87;21619;-64
2021/04/04 08:02:29;;;;;;;5.47;2.90;;;;;;;8.81;51.42;97679.18;1634896;87;21183;-64
2021/04/04 08:05:08;;;;;;;3.72;2.87;;;;;;;8.92;50.92;97681.14;1634967;87;21635;-65
2021/04/04 08:07:58;;;;;;;4.85;2.27;;;;;;;9.06;49.81;97673.42;1607656;88;21160;-64
2021/04/04 08:11:16;;;;;;;6.03;2.52;;;;;;;9.25;50.79;97673.36;1635233;87;21555;-64
2021/04/04 08:14:07;;;;;;;4.50;2.70;;;;;;;8.67;49.05;97671.38;1635030;87;21179;-65
2021/04/04 08:16:52;;;;;;;4.47;3.62;;;;;;;8.96;48.60;97682.49;1634951;86;21168;-65
2021/04/04 08:19:20;;;;;;;3.98;2.90;;;;;;;9.25;49.44;97681.61;1634954;86;21166;-65
2021/04/04 08:22:03;;;;;;;4.05;2.58;;;;;;;9.20;47.65;97683.80;1635014;87;21199;-65
2021/04/04 08:24:39;;;;;;;5.28;2.40;;;;;;;9.32;47.56;97684.80;1634934;86;21187;-66
2021/04/04 08:27:29;;;;;;;;;;;;;;;9.37;45.67;97677.42;1637433;87;21171;-64
2021/04/04 08:33:06;;;;;;;3.70;2.52;;;;;;;9.87;44.05;97677.05;1659643;86;21156;-64
2021/04/04 08:35:44;;;;;;;4.00;2.47;;;;;;;10.08;45.10;97677.59;1659576;85;21482;-64
2021/04/04 08:38:41;;;;;;;3.37;2.10;;;;;;;9.98;46.03;97680.26;1659449;86;21573;-63
2021/04/04 08:41:16;;;;;;;5.37;3.20;;;;;;;10.11;44.49;97679.91;1689716;84;21250;-63
2021/04/04 08:43:53;;;;;;;5.75;2.60;;;;;;;9.82;43.67;97687.85;1689362;84;21175;-66
2021/04/04 08:46:42;;;;;;;4.55;3.12;;;;;;;9.77;44.38;97686.16;1689626;85;21169;-62
2021/04/04 08:49:12;;;;;;;3.35;2.10;;;;;;;9.47;43.96;97693.73;1658516;84;21726;-62
2021/04/04 08:51:44;;;;;;;5.95;3.10;;;;;;;9.99;43.95;97688.86;1689444;84;21193;-62
2021/04/04 08:54:20;;;;;;;5.22;3.47;;;;;;;9.97;42.30;97683.80;1689325;85;21166;-65
2021/04/04 08:56:51;;;;;;;5.87;3.00;;;;;;;9.94;40.51;97688.47;1689470;85;21254;-65
2021/04/04 08:59:22;;;;;;;4.65;2.87;;;;;;;10.03;40.74;97689.38;1664138;85;21150;-64
2021/04/04 09:02:05;;;;;;;4.28;2.80;;;;;;;10.08;40.07;97684.58;1663929;85;21173;-64
2021/04/04 09:04:40;;;;;;;4.17;2.62;;;;;;;9.95;40.91;97681.03;1689415;85;21166;-64
2021/04/04 09:07:09;;;;;;;3.55;2.60;;;;;;;10.45;40.83;97671.84;1689460;83;21170;-64
2021/04/04 09:09:48;;;;;;;4.62;2.70;;;;;;;10.82;41.60;97673.41;1689494;83;21176;-64
2021/04/04 09:12:17;;;;;;;4.20;3.02;;;;;;;11.28;39.42;97673.58;1689293;84;21560;-65
2021/04/04 09:14:47;;;;;;;7.47;3.37;;;;;;;11.53;37.92;97661.50;1689273;85;21147;-65
2021/04/04 09:17:16;;;;;;;4.75;3.47;;;;;;;11.66;37.68;97665.80;1689294;85;21255;-65
2021/04/04 09:19:47;;;;;;;6.85;3.20;;;;;;;11.89;37.39;97665.59;1689369;85;21191;-65
2021/04/04 09:22:20;;;;;;;4.37;2.67;;;;;;;11.79;37.62;97665.70;1689559;85;21178;-65
2021/04/04 09:25:02;;;;;;;4.55;2.52;;;;;;;12.64;36.71;97661.16;1689349;84;21185;-65
2021/04/04 09:27:45;;;;;;;10.08;3.62;;;;;;;12.93;35.63;97660.16;1689190;84;21127;-67
2021/04/04 09:30:39;;;;;;;5.75;3.47;;;;;;;12.56;35.90;97652.86;1689269;84;21170;-65
2021/04/04 09:33:13;;;;;;;4.33;2.45;;;;;;;12.59;34.83;97659.04;1739477;82;21308;-64
2021/04/04 09:35:42;;;;;;;4.83;2.80;;;;;;;12.90;33.38;97660.49;1738932;82;21719;-64
2021/04/04 09:38:14;;;;;;;2.95;2.22;;;;;;;13.53;35.84;97656.64;1739453;81;21150;-64
2021/04/04 09:40:44;;;;;;;5.08;3.10;;;;;;;14.42;34.86;97654.90;1739362;82;21316;-64
2021/04/04 09:43:16;;;;;;;6.92;3.15;;;;;;;14.21;32.43;97642.92;1718777;81;21162;-64
2021/04/04 09:45:44;;;;;;;4.20;3.02;;;;;;;14.67;32.47;97646.36;1739666;82;21157;-65
2021/04/04 09:48:25;;;;;;;4.22;3.35;;;;;;;14.57;33.25;97650.54;1739784;82;21138;-65
2021/04/04 09:51:16;;;;;;;3.00;2.40;;;;;;;14.67;33.40;97641.95;1739786;82;21253;-64
2021/04/04 09:53:47;;;;;;;5.08;3.00;;;;;;;15.49;33.39;97637.58;1739467;82;21284;-64
2021/04/04 09:56:21;;;;;;;5.67;2.87;;;;;;;15.62;32.41;97634.33;1739460;81;21119;-64
2021/04/04 09:58:49;;;;;;;3.65;2.55;;;;;;;15.53;31.53;97628.86;1739751;81;21153;-65
2021/04/04 10:01:26;;;;;;;2.50;2.30;;;;;;;16.02;31.14;97630.37;1739445;82;21197;-65
2021/04/04 10:04:04;;;;;;;3.45;2.40;;;;;;;15.40;30.18;97633.42;1739720;82;21166;-65
2021/04/04 10:06:35;;;;;;;3.02;2.55;;;;;;;16.05;29.07;97631.31;1739616;81;21599;-65
2021/04/04 10:09:11;;;;;;;4.45;2.98;;;;;;;15.44;30.98;97626.83;1739598;82;21284;-65
2021/04/04 10:11:40;;;;;;;5.92;3.25;;;;;;;16.18;28.91;97622.30;1739455;82;21848;-65
2021/04/04 10:14:12;;;;;;;5.00;2.98;;;;;;;15.16;32.40;97617.98;1739582;82;21171;-65
2021/04/04 10:16:41;;;;;;;4.58;2.80;;;;;;;14.81;32.70;97622.08;1739636;82;21685;-67
2021/04/04 10:19:12;;;;;;;4.00;2.58;;;;;;;14.89;32.77;97622.01;1739445;82;21194;-64
2021/04/04 10:22:18;;;;;;;4.58;3.00;;;;;;;15.15;32.74;97617.66;1739401;82;21171;-64
2021/04/04 10:24:46;;;;;;;4.42;2.77;;;;;;;14.93;32.77;97617.23;1639912;86;21223;-63
2021/04/04 10:27:27;;;;;;;5.47;3.20;;;;;;;14.90;32.92;97615.77;1639978;87;21163;-63
2021/04/04 10:30:17;;;;;;;5.12;2.67;;;;;;;14.81;32.33;97609.50;1639846;87;21648;-65
2021/04/04 10:32:48;;;;;;;4.40;2.60;;;;;;;15.12;31.03;97610.17;1639816;87;21608;-64
2021/04/04 10:35:33;;;;;;;3.50;2.50;;;;;;;14.90;32.13;97612.38;1639746;87;21167;-64
2021/04/04 10:38:15;;;;;;;;;;;;;;;14.62;31.17;97609.52;1826298;77;22167;-65
2021/04/04 10:40:59;;;;;;;4.28;2.33;;;;;;;14.71;31.21;97609.74;1827482;78;20208;-65
2021/04/04 10:46:44;;;;;;;4.60;2.25;;;;;;;15.92;30.98;97601.04;1760219;80;21169;-64
2021/04/04 10:49:14;;;;;;;2.72;2.10;;;;;;;15.62;30.11;97602.92;1770617;80;21169;-64
2021/04/04 10:51:44;;;;;;;3.30;2.30;;;;;;;16.43;31.94;97593.41;1770667;80;21157;-65
2021/04/04 10:54:12;;;;;;;3.90;2.47;;;;;;;16.77;30.36;97592.69;1770783;78;21152;-63
2021/04/04 10:56:42;;;;;;;5.65;2.70;;;;;;;17.47;30.83;97592.52;1770900;78;21146;-64
2021/04/04 10:59:11;;;;;;;5.08;2.30;;;;;;;17.02;29.05;97598.33;1770584;79;21164;-63
2021/04/04 11:01:41;;;;;;;2.75;2.12;;;;;;;15.88;29.67;97598.48;1753700;79;21182;-63
2021/04/04 11:04:13;;;;;;;4.70;2.75;;;;;;;14.96;31.06;97597.27;1770803;78;21147;-63
2021/04/04 11:06:43;;;;;;;3.77;2.08;;;;;;;15.47;31.50;97587.21;1753551;80;21147;-62
2021/04/04 11:09:11;;;;;;;3.62;2.37;;;;;;;14.78;31.96;97576.70;1770634;78;21120;-64
2021/04/04 11:11:42;;;;;;;4.03;2.02;;;;;;;15.41;30.63;97580.56;1770587;79;21207;-65
2021/04/04 11:14:11;;;;;;;3.10;2.10;;;;;;;15.72;29.78;97581.17;1770624;79;21588;-64
2021/04/04 11:16:40;;;;;;;3.60;2.45;;;;;;;16.07;28.63;97581.66;1770719;79;21572;-64
2021/04/04 11:19:09;;;;;;;3.10;2.30;;;;;;;15.30;29.94;97577.11;1770842;78;21167;-63
2021/04/04 11:21:44;;;;;;;3.40;2.25;;;;;;;14.92;30.40;97577.20;1770693;79;21167;-63
2021/04/04 11:24:15;;;;;;;2.98;2.25;;;;;;;15.00;30.58;97582.35;1770725;79;21588;-64
2021/04/04 11:27:07;;;;;;;3.27;2.12;;;;;;;14.96;30.31;97580.27;1770679;78;21556;-64
2021/04/04 11:30:05;;;;;;;3.42;2.12;;;;;;;15.02;30.43;97579.05;1689786;83;21143;-64
2021/04/04 11:32:33;;;;;;;3.25;2.20;;;;;;;14.86;30.06;97577.11;1633664;88;21172;-64
2021/04/04 11:35:05;;;;;;;2.50;1.90;;;;;;;14.84;30.24;97571.23;1617377;87;21202;-65
2021/04/04 11:37:37;;;;;;;2.60;1.90;;;;;;;14.70;30.20;97571.06;1633682;86;21615;-64
2021/04/04 11:40:23;;;;;;;6.10;2.02;;;;;;;14.52;31.00;97569.73;1617433;87;21238;-66
2021/04/04 11:43:05;;;;;;;2.92;1.85;;;;;;;14.44;31.05;97571.92;1633756;88;21199;-64
2021/04/04 11:45:36;;;;;;;3.27;2.00;;;;;;;14.31;31.75;97563.86;1612041;88;21175;-64
2021/04/04 11:48:31;;;;;;;3.85;2.25;;;;;;;14.23;31.28;97565.22;1633345;88;21628;-65
2021/04/04 11:51:17;;;;;;;2.50;2.17;;;;;;;14.10;31.33;97562.37;1616884;87;21230;-65
2021/04/04 11:53:48;;;;;;;3.02;2.00;;;;;;;14.20;31.44;97559.05;1633300;87;21179;-64
2021/04/04 11:56:49;;;;;;;2.90;2.10;;;;;;;14.10;31.24;97559.27;1616782;87;21208;-64
2021/04/04 11:59:18;;;;;;;3.42;1.82;;;;;;;14.12;31.76;97557.28;1633019;86;21244;-65
2021/04/04 12:01:46;;;;;;;4.00;2.35;;;;;;;14.01;31.85;97556.39;1616930;87;21201;-65
2021/04/04 12:04:30;;;;;;;4.37;2.30;;;;;;;13.87;31.71;97551.11;1633168;86;21199;-65
2021/04/04 12:07:10;;;;;;;3.33;2.30;;;;;;;13.79;31.86;97549.37;1616315;87;21572;-64
2021/04/04 12:09:42;;;;;;;2.10;1.67;;;;;;;13.94;32.20;97548.94;1633273;88;21254;-64
2021/04/04 12:12:11;;;;;;;1.98;1.67;;;;;;;14.13;31.10;97547.66;1617002;87;21575;-64
2021/04/04 12:15:17;;;;;;;3.50;2.42;;;;;;;14.16;32.13;97540.28;1633137;86;21191;-65
2021/04/04 12:18:07;;;;;;;4.37;2.40;;;;;;;14.20;32.52;97541.55;1613373;88;21248;-65
2021/04/04 12:20:35;;;;;;;5.60;2.55;;;;;;;14.02;32.53;97547.58;1748174;80;21303;-65
2021/04/04 12:23:12;;;;;;;3.42;2.35;;;;;;;14.09;32.47;97539.85;1747914;80;21716;-65
2021/04/04 12:25:40;;;;;;;3.05;2.08;;;;;;;14.08;32.29;97543.47;1748117;80;21205;-64
2021/04/04 12:28:09;;;;;;;3.02;2.37;;;;;;;14.08;32.32;97540.86;1747958;81;21169;-65
2021/04/04 12:30:43;;;;;;;3.33;2.30;;;;;;;13.53;32.20;97538.44;1748075;80;21165;-64
2021/04/04 12:33:23;;;;;;;2.72;2.02;;;;;;;13.57;32.48;97534.50;1748072;80;21256;-65
2021/04/04 12:35:53;;;;;;;5.58;2.50;;;;;;;13.62;32.22;97532.17;1748138;80;21197;-65
2021/04/04 12:38:29;;;;;;;2.92;1.90;;;;;;;12.63;33.77;97535.79;1748009;80;21571;-64
2021/04/04 12:41:01;;;;;;;3.27;1.72;;;;;;;12.96;34.41;97529.99;1748179;80;21609;-64
2021/04/04 12:43:29;;;;;;;2.90;2.00;;;;;;;13.26;33.70;97531.89;1747937;80;21236;-64